Time;durP1;ratioP1;P1;durP2;ratioP2;P2;SDS_P1;SDS_P2;PMS_P1;PMS_P2;Temp;Humidity;BMP_temperature;BMP_pressure;BME280_temperature;BME280_humidity;BME280_pressure;Samples;Min_cycle;Max_cycle;Signal;HPM_P1;HPM_P2
2021/12/28 00:01:24;;;;;;;0.00;0.00;;;;;;;;;;5099374;27;20486;-90
2021/12/28 00:03:50;;;;;;;0.10;0.10;;;;;;;;;;5099579;27;20035;-90
2021/12/28 00:06:16;;;;;;;0.10;0.10;;;;;;;;;;5116410;27;20107;-91
2021/12/28 00:08:43;;;;;;;0.10;0.10;;;;;;;;;;5099696;27;20514;-91
2021/12/28 00:11:09;;;;;;;0.10;0.10;;;;;;;;;;5116418;27;20035;-91
2021/12/28 00:13:35;;;;;;;0.17;0.17;;;;;;;;;;5099128;27;20031;-91
2021/12/28 00:18:30;;;;;;;0.05;0.05;;;;;;;;;;5116889;27;20047;-91
2021/12/28 00:20:57;;;;;;;0.10;0.10;;;;;;;;;;5099471;27;20069;-91
2021/12/28 00:23:25;;;;;;;0.00;0.00;;;;;;;;;;5099214;27;20039;-91
2021/12/28 00:25:51;;;;;;;0.47;0.30;;;;;;;;;;5099138;27;20047;-91
2021/12/28 00:28:18;;;;;;;0.20;0.20;;;;;;;;;;5116093;27;20077;-91
2021/12/28 00:30:44;;;;;;;0.10;0.10;;;;;;;;;;5116211;27;20047;-91
2021/12/28 00:33:10;;;;;;;0.05;0.05;;;;;;;;;;5099010;27;20426;-93
2021/12/28 00:35:37;;;;;;;0.10;0.10;;;;;;;;;;5116318;27;20386;-93
2021/12/28 00:38:05;;;;;;;1.35;0.20;;;;;;;;;;5099420;27;20039;-92
2021/12/28 00:40:31;;;;;;;0.20;0.20;;;;;;;;;;5116190;27;20087;-92
2021/12/28 00:42:57;;;;;;;0.00;0.00;;;;;;;;;;5115924;27;20031;-93
2021/12/28 00:45:23;;;;;;;0.00;0.00;;;;;;;;;;5099585;27;20031;-90
2021/12/28 00:47:50;;;;;;;0.00;0.00;;;;;;;;;;5115994;27;20146;-91
2021/12/28 00:50:16;;;;;;;0.08;0.08;;;;;;;;;;5098583;27;20047;-90
2021/12/28 00:52:42;;;;;;;0.10;0.10;;;;;;;;;;5115731;27;20494;-90
2021/12/28 00:55:08;;;;;;;0.00;0.00;;;;;;;;;;5115633;27;20035;-90
2021/12/28 00:57:34;;;;;;;0.15;0.15;;;;;;;;;;5098206;27;20046;-90
2021/12/28 01:00:01;;;;;;;0.00;0.00;;;;;;;;;;5098385;27;20398;-91
2021/12/28 01:02:27;;;;;;;0.30;0.30;;;;;;;;;;5115197;27;20039;-91
2021/12/28 01:04:53;;;;;;;0.10;0.10;;;;;;;;;;5115448;27;20050;-91
2021/12/28 01:07:18;;;;;;;0.10;0.10;;;;;;;;;;5115113;27;20031;-91
2021/12/28 01:09:45;;;;;;;0.08;0.08;;;;;;;;;;5098354;27;20035;-90
2021/12/28 01:12:11;;;;;;;0.10;0.10;;;;;;;;;;5115105;27;20035;-90
2021/12/28 01:14:37;;;;;;;0.10;0.10;;;;;;;;;;5115311;27;20359;-90
2021/12/28 01:17:04;;;;;;;0.10;0.10;;;;;;;;;;5115016;28;20126;-90
2021/12/28 01:19:30;;;;;;;0.00;0.00;;;;;;;;;;5115160;27;20091;-90
2021/12/28 01:21:57;;;;;;;0.45;0.20;;;;;;;;;;5097929;27;20039;-90
2021/12/28 01:24:24;;;;;;;0.10;0.10;;;;;;;;;;5097990;28;20381;-90
2021/12/28 01:26:49;;;;;;;0.10;0.10;;;;;;;;;;5097576;28;20486;-90
2021/12/28 01:29:15;;;;;;;0.10;0.10;;;;;;;;;;5097906;28;20045;-90
2021/12/28 01:31:41;;;;;;;0.00;0.00;;;;;;;;;;5097741;28;20035;-89
2021/12/28 01:34:08;;;;;;;0.10;0.10;;;;;;;;;;5114791;28;20038;-90
2021/12/28 01:36:34;;;;;;;0.22;0.20;;;;;;;;;;5114537;28;20047;-90
2021/12/28 01:39:00;;;;;;;0.00;0.00;;;;;;;;;;5114547;28;20047;-89
2021/12/28 01:41:26;;;;;;;0.10;0.10;;;;;;;;;;5114527;27;20044;-89
2021/12/28 01:43:56;;;;;;;0.10;0.10;;;;;;;;;;5115046;28;20039;-89
2021/12/28 01:46:22;;;;;;;0.10;0.10;;;;;;;;;;5131582;27;20074;-89
2021/12/28 01:48:48;;;;;;;0.10;0.10;;;;;;;;;;5114533;28;20074;-89
2021/12/28 01:51:15;;;;;;;0.10;0.10;;;;;;;;;;5097619;28;20069;-90
2021/12/28 01:53:41;;;;;;;1.63;0.30;;;;;;;;;;5114369;28;20043;-89
2021/12/28 01:56:08;;;;;;;0.10;0.10;;;;;;;;;;5131607;27;20079;-89
2021/12/28 01:58:34;;;;;;;0.10;0.10;;;;;;;;;;5114585;28;20494;-89
2021/12/28 02:01:00;;;;;;;0.10;0.10;;;;;;;;;;5097324;28;20039;-89
2021/12/28 02:03:27;;;;;;;0.10;0.10;;;;;;;;;;5097533;28;20043;-90
2021/12/28 02:05:53;;;;;;;0.57;0.57;;;;;;;;;;5114229;28;20047;-90
2021/12/28 02:08:20;;;;;;;0.10;0.10;;;;;;;;;;5114380;28;20039;-89
2021/12/28 02:10:46;;;;;;;0.10;0.10;;;;;;;;;;5114302;28;20042;-90
2021/12/28 02:13:12;;;;;;;0.10;0.10;;;;;;;;;;5116083;27;20036;-89
2021/12/28 02:15:38;;;;;;;0.20;0.20;;;;;;;;;;5118051;27;20035;-89
2021/12/28 02:18:05;;;;;;;0.13;0.13;;;;;;;;;;5117969;27;20509;-89
2021/12/28 02:20:31;;;;;;;0.65;0.65;;;;;;;;;;5117981;27;20455;-89
2021/12/28 02:22:57;;;;;;;0.03;0.03;;;;;;;;;;5117830;27;20042;-89
2021/12/28 02:25:23;;;;;;;0.10;0.10;;;;;;;;;;5117659;27;20443;-90
2021/12/28 02:27:49;;;;;;;0.10;0.10;;;;;;;;;;5101349;27;20043;-89
2021/12/28 02:30:16;;;;;;;0.10;0.10;;;;;;;;;;5100697;27;20035;-90
2021/12/28 02:32:42;;;;;;;0.10;0.10;;;;;;;;;;5117608;27;20462;-89
2021/12/28 02:35:09;;;;;;;0.10;0.10;;;;;;;;;;5117621;27;20093;-89
2021/12/28 02:37:35;;;;;;;0.00;0.00;;;;;;;;;;5117618;27;20043;-89
2021/12/28 02:40:01;;;;;;;0.10;0.10;;;;;;;;;;5100848;27;20131;-90
2021/12/28 02:42:27;;;;;;;0.10;0.10;;;;;;;;;;5117574;27;20035;-89
2021/12/28 02:45:02;;;;;;;0.10;0.10;;;;;;;;;;5100765;27;20043;-90
2021/12/28 02:47:29;;;;;;;0.22;0.20;;;;;;;;;;5117892;27;20061;-89
2021/12/28 02:49:55;;;;;;;0.08;0.08;;;;;;;;;;5100714;27;20126;-88
2021/12/28 02:52:21;;;;;;;0.10;0.10;;;;;;;;;;5117447;27;20078;-89
2021/12/28 02:54:47;;;;;;;0.10;0.10;;;;;;;;;;5100267;27;20103;-89
2021/12/28 02:57:13;;;;;;;0.10;0.10;;;;;;;;;;5117370;27;20524;-88
2021/12/28 02:59:49;;;;;;;0.10;0.10;;;;;;;;;;5100598;27;20035;-88
2021/12/28 03:02:15;;;;;;;0.10;0.10;;;;;;;;;;5100457;27;20085;-88
2021/12/28 03:04:41;;;;;;;0.10;0.10;;;;;;;;;;5100141;27;20047;-88
2021/12/28 03:07:07;;;;;;;0.10;0.10;;;;;;;;;;5116821;27;20142;-87
2021/12/28 03:09:33;;;;;;;0.20;0.20;;;;;;;;;;5117334;27;20045;-87
2021/12/28 03:11:59;;;;;;;0.10;0.10;;;;;;;;;;5116929;27;20035;-87
2021/12/28 03:14:25;;;;;;;0.10;0.10;;;;;;;;;;5116981;27;20039;-87
2021/12/28 03:16:51;;;;;;;0.00;0.00;;;;;;;;;;5099762;27;20099;-87
2021/12/28 03:19:17;;;;;;;0.32;0.20;;;;;;;;;;5116882;27;20115;-88
2021/12/28 03:21:43;;;;;;;0.10;0.10;;;;;;;;;;5116564;27;20070;-87
2021/12/28 03:24:09;;;;;;;0.08;0.08;;;;;;;;;;5099479;27;20043;-86
2021/12/28 03:26:35;;;;;;;0.15;0.15;;;;;;;;;;5116392;27;20055;-87
2021/12/28 03:29:01;;;;;;;0.10;0.10;;;;;;;;;;5133655;27;20419;-87
2021/12/28 03:31:27;;;;;;;0.10;0.10;;;;;;;;;;5116976;27;20380;-87
2021/12/28 03:33:54;;;;;;;0.10;0.10;;;;;;;;;;5116435;27;20054;-87
2021/12/28 03:36:20;;;;;;;0.10;0.10;;;;;;;;;;5099557;27;20126;-87
2021/12/28 03:38:46;;;;;;;0.98;0.30;;;;;;;;;;5116208;27;20050;-86
2021/12/28 03:41:12;;;;;;;0.10;0.10;;;;;;;;;;5133624;27;20039;-87
2021/12/28 03:43:39;;;;;;;0.10;0.10;;;;;;;;;;5116396;27;20119;-87
2021/12/28 03:46:05;;;;;;;0.10;0.10;;;;;;;;;;5116225;27;20042;-87
2021/12/28 03:48:31;;;;;;;0.10;0.10;;;;;;;;;;5115973;27;20039;-88
2021/12/28 03:50:57;;;;;;;0.15;0.15;;;;;;;;;;5099507;27;20032;-89
2021/12/28 03:53:23;;;;;;;0.10;0.10;;;;;;;;;;5116028;27;20039;-89
2021/12/28 03:55:49;;;;;;;0.10;0.10;;;;;;;;;;5116063;27;20339;-89
2021/12/28 03:58:14;;;;;;;0.10;0.10;;;;;;;;;;5098935;27;20042;-88
2021/12/28 04:00:41;;;;;;;0.25;0.25;;;;;;;;;;5098907;27;20390;-88
2021/12/28 04:03:07;;;;;;;0.10;0.10;;;;;;;;;;5098764;27;20111;-88
2021/12/28 04:05:34;;;;;;;0.10;0.10;;;;;;;;;;5115800;27;20054;-88
2021/12/28 04:08:00;;;;;;;0.10;0.10;;;;;;;;;;5098911;27;20149;-88
2021/12/28 04:10:31;;;;;;;0.10;0.10;;;;;;;;;;5098898;27;20375;-87
2021/12/28 04:12:57;;;;;;;0.10;0.10;;;;;;;;;;5116624;27;20043;-87
2021/12/28 04:15:23;;;;;;;0.10;0.10;;;;;;;;;;5115555;27;20166;-88
2021/12/28 04:17:49;;;;;;;0.10;0.10;;;;;;;;;;5098996;27;20144;-89
2021/12/28 04:20:16;;;;;;;0.10;0.10;;;;;;;;;;5116232;27;20371;-88
2021/12/28 04:22:42;;;;;;;0.63;0.50;;;;;;;;;;5115536;27;20057;-88
2021/12/28 04:25:09;;;;;;;0.15;0.15;;;;;;;;;;5115421;27;20039;-87
2021/12/28 04:27:35;;;;;;;0.10;0.10;;;;;;;;;;5098272;27;20050;-87
2021/12/28 04:30:01;;;;;;;0.10;0.10;;;;;;;;;;5115345;27;20555;-87
2021/12/28 04:32:27;;;;;;;0.10;0.10;;;;;;;;;;5098271;27;20098;-88
2021/12/28 04:34:53;;;;;;;0.10;0.10;;;;;;;;;;5098100;27;20435;-88
2021/12/28 04:37:19;;;;;;;0.10;0.10;;;;;;;;;;5098461;27;20051;-88
2021/12/28 04:39:45;;;;;;;0.10;0.10;;;;;;;;;;5115264;27;20482;-89
2021/12/28 04:42:11;;;;;;;0.10;0.10;;;;;;;;;;5115243;27;20092;-88
2021/12/28 04:44:37;;;;;;;0.10;0.10;;;;;;;;;;5115116;27;20122;-88
2021/12/28 04:47:03;;;;;;;0.10;0.10;;;;;;;;;;5097936;27;20422;-88
2021/12/28 04:49:29;;;;;;;0.10;0.10;;;;;;;;;;5132537;27;20373;-88
2021/12/28 04:51:56;;;;;;;0.40;0.40;;;;;;;;;;5115194;27;20031;-88
2021/12/28 04:54:22;;;;;;;0.10;0.10;;;;;;;;;;5098277;27;20033;-88
2021/12/28 04:56:48;;;;;;;0.17;0.17;;;;;;;;;;5115060;27;20043;-89
2021/12/28 04:59:17;;;;;;;0.10;0.10;;;;;;;;;;5098035;27;20053;-89
2021/12/28 05:01:43;;;;;;;0.10;0.10;;;;;;;;;;5097938;27;20039;-88
2021/12/28 05:04:09;;;;;;;0.10;0.10;;;;;;;;;;5115128;27;20045;-88
2021/12/28 05:06:35;;;;;;;0.25;0.25;;;;;;;;;;5114678;27;20435;-88
2021/12/28 05:09:02;;;;;;;0.10;0.10;;;;;;;;;;5115251;27;20058;-88
2021/12/28 05:11:29;;;;;;;0.20;0.20;;;;;;;;;;5097893;27;20406;-88
2021/12/28 05:13:54;;;;;;;0.20;0.20;;;;;;;;;;5097672;27;20047;-88
2021/12/28 05:16:20;;;;;;;0.20;0.20;;;;;;;;;;5114766;27;20144;-88
2021/12/28 05:18:46;;;;;;;0.10;0.10;;;;;;;;;;5097879;27;20081;-87
2021/12/28 05:21:12;;;;;;;0.10;0.10;;;;;;;;;;5097534;28;20046;-87
2021/12/28 05:23:38;;;;;;;0.20;0.20;;;;;;;;;;5131376;27;20039;-87
2021/12/28 05:26:04;;;;;;;0.10;0.10;;;;;;;;;;5114308;28;20051;-88
2021/12/28 05:28:30;;;;;;;0.10;0.10;;;;;;;;;;5097464;27;20043;-88
2021/12/28 05:30:56;;;;;;;0.25;0.25;;;;;;;;;;5114368;28;20091;-88
2021/12/28 05:33:22;;;;;;;0.10;0.10;;;;;;;;;;5114401;28;20039;-89
2021/12/28 05:35:48;;;;;;;0.10;0.10;;;;;;;;;;5097320;28;20047;-89
2021/12/28 05:38:14;;;;;;;0.10;0.10;;;;;;;;;;5097534;28;20394;-88
2021/12/28 05:40:40;;;;;;;0.10;0.10;;;;;;;;;;5097520;28;20049;-89
2021/12/28 05:43:06;;;;;;;0.10;0.10;;;;;;;;;;5114234;27;20039;-88
2021/12/28 05:45:32;;;;;;;0.10;0.10;;;;;;;;;;5097494;28;20416;-88
2021/12/28 05:47:58;;;;;;;0.10;0.10;;;;;;;;;;5115861;27;20050;-88
2021/12/28 05:50:24;;;;;;;0.20;0.20;;;;;;;;;;5101636;27;20043;-88
2021/12/28 05:52:50;;;;;;;0.17;0.17;;;;;;;;;;5118600;27;20095;-88
2021/12/28 05:55:16;;;;;;;0.15;0.15;;;;;;;;;;5118372;27;20118;-89
2021/12/28 05:57:42;;;;;;;0.10;0.10;;;;;;;;;;5118192;27;20118;-89
2021/12/28 06:00:08;;;;;;;0.10;0.10;;;;;;;;;;5101681;27;20043;-88
2021/12/28 06:02:34;;;;;;;0.10;0.10;;;;;;;;;;5118313;27;20092;-88
2021/12/28 06:05:00;;;;;;;0.17;0.10;;;;;;;;;;5118586;27;20421;-88
2021/12/28 06:07:27;;;;;;;0.20;0.17;;;;;;;;;;5118182;27;20184;-89
2021/12/28 06:09:56;;;;;;;0.10;0.10;;;;;;;;;;5118101;27;20050;-88
2021/12/28 06:12:23;;;;;;;0.30;0.30;;;;;;;;;;5117934;27;20117;-89
2021/12/28 06:14:49;;;;;;;0.10;0.10;;;;;;;;;;5101284;27;20184;-89
2021/12/28 06:17:15;;;;;;;0.10;0.10;;;;;;;;;;5101245;27;20084;-88
2021/12/28 06:19:41;;;;;;;0.10;0.10;;;;;;;;;;5101083;27;20505;-89
2021/12/28 06:22:07;;;;;;;0.10;0.10;;;;;;;;;;5118141;27;20043;-89
2021/12/28 06:24:33;;;;;;;0.10;0.10;;;;;;;;;;5117912;27;20482;-89
2021/12/28 06:26:58;;;;;;;0.20;0.20;;;;;;;;;;5100665;27;20462;-88
2021/12/28 06:29:25;;;;;;;0.10;0.10;;;;;;;;;;5117903;27;20039;-88
2021/12/28 06:31:50;;;;;;;0.10;0.10;;;;;;;;;;5117788;27;20179;-88
2021/12/28 06:34:16;;;;;;;0.03;0.03;;;;;;;;;;5101036;27;20118;-88
2021/12/28 06:36:43;;;;;;;0.10;0.10;;;;;;;;;;5100769;27;20039;-88
2021/12/28 06:39:09;;;;;;;0.10;0.10;;;;;;;;;;5100577;27;20039;-87
2021/12/28 06:41:35;;;;;;;0.10;0.10;;;;;;;;;;5117435;27;20071;-87
2021/12/28 06:44:01;;;;;;;0.68;0.68;;;;;;;;;;5117491;27;20112;-88
2021/12/28 06:46:27;;;;;;;0.10;0.10;;;;;;;;;;5117585;27;20035;-88
2021/12/28 06:48:53;;;;;;;0.10;0.10;;;;;;;;;;5117524;27;20599;-88
2021/12/28 06:51:19;;;;;;;0.10;0.10;;;;;;;;;;5117705;27;20042;-88
2021/12/28 06:53:46;;;;;;;0.10;0.10;;;;;;;;;;5116976;27;20470;-88
2021/12/28 06:56:12;;;;;;;0.10;0.10;;;;;;;;;;5100509;27;20051;-88
2021/12/28 06:58:40;;;;;;;0.10;0.10;;;;;;;;;;5099966;27;20043;-88
2021/12/28 07:01:06;;;;;;;0.00;0.00;;;;;;;;;;5100833;27;20162;-88
2021/12/28 07:03:32;;;;;;;0.75;0.15;;;;;;;;;;5117136;27;20203;-87
2021/12/28 07:05:58;;;;;;;0.08;0.08;;;;;;;;;;5117421;27;20035;-88
2021/12/28 07:08:24;;;;;;;0.88;0.25;;;;;;;;;;5100020;27;20551;-88
2021/12/28 07:10:50;;;;;;;0.32;0.32;;;;;;;;;;5134125;27;20118;-88
2021/12/28 07:13:16;;;;;;;0.20;0.20;;;;;;;;;;5116791;27;20034;-88
2021/12/28 07:15:42;;;;;;;0.10;0.10;;;;;;;;;;5099889;27;20066;-88
2021/12/28 07:18:08;;;;;;;0.10;0.10;;;;;;;;;;5116828;27;20031;-87
2021/12/28 07:20:34;;;;;;;0.10;0.10;;;;;;;;;;5099806;27;20043;-91
2021/12/28 07:23:00;;;;;;;0.20;0.20;;;;;;;;;;5099781;27;20035;-90
2021/12/28 07:25:26;;;;;;;0.10;0.10;;;;;;;;;;5099620;27;20035;-89
2021/12/28 07:27:52;;;;;;;0.10;0.10;;;;;;;;;;5099920;27;20347;-90
2021/12/28 07:30:17;;;;;;;0.13;0.13;;;;;;;;;;5116958;27;20027;-89
2021/12/28 07:32:43;;;;;;;0.20;0.20;;;;;;;;;;5099820;27;20524;-89
2021/12/28 07:35:10;;;;;;;0.35;0.35;;;;;;;;;;5099917;27;20039;-90
2021/12/28 07:37:36;;;;;;;0.20;0.20;;;;;;;;;;5116725;27;20039;-90
2021/12/28 07:40:02;;;;;;;0.10;0.10;;;;;;;;;;5116693;27;20294;-90
2021/12/28 07:42:28;;;;;;;0.10;0.10;;;;;;;;;;5099513;27;20055;-90
2021/12/28 07:44:54;;;;;;;0.10;0.10;;;;;;;;;;5099758;27;20561;-89
2021/12/28 07:47:20;;;;;;;0.10;0.10;;;;;;;;;;5099383;27;20038;-89
2021/12/28 07:49:46;;;;;;;0.28;0.20;;;;;;;;;;5116220;27;20038;-88
2021/12/28 07:52:12;;;;;;;0.10;0.10;;;;;;;;;;5116621;27;20039;-92
2021/12/28 07:54:37;;;;;;;0.10;0.10;;;;;;;;;;5099623;27;20036;-88
2021/12/28 07:57:04;;;;;;;0.10;0.10;;;;;;;;;;5116009;27;20179;-86
2021/12/28 07:59:30;;;;;;;0.10;0.10;;;;;;;;;;5115872;27;20046;-88
2021/12/28 08:01:55;;;;;;;0.30;0.30;;;;;;;;;;5116222;27;20039;-87
2021/12/28 08:04:21;;;;;;;0.10;0.10;;;;;;;;;;5116075;27;20186;-89
2021/12/28 08:06:47;;;;;;;0.10;0.10;;;;;;;;;;5098835;27;20031;-88
2021/12/28 08:09:13;;;;;;;0.10;0.10;;;;;;;;;;5099209;27;20460;-89
2021/12/28 08:11:39;;;;;;;0.10;0.10;;;;;;;;;;5115290;27;20136;-88
2021/12/28 08:14:05;;;;;;;0.10;0.10;;;;;;;;;;5098801;27;20476;-88
2021/12/28 08:16:31;;;;;;;0.10;0.10;;;;;;;;;;5115700;27;20126;-88
2021/12/28 08:18:57;;;;;;;0.10;0.10;;;;;;;;;;5115600;27;20039;-88
2021/12/28 08:21:23;;;;;;;0.10;0.10;;;;;;;;;;5115308;27;20225;-87
2021/12/28 08:23:49;;;;;;;0.00;0.00;;;;;;;;;;5115782;27;20038;-88
2021/12/28 08:26:16;;;;;;;0.20;0.20;;;;;;;;;;5132156;27;20516;-87
2021/12/28 08:28:43;;;;;;;0.10;0.10;;;;;;;;;;5098697;27;20046;-87
2021/12/28 08:31:09;;;;;;;0.10;0.10;;;;;;;;;;5115327;27;20058;-87
2021/12/28 08:33:34;;;;;;;0.10;0.10;;;;;;;;;;5098259;27;20478;-86
2021/12/28 08:36:04;;;;;;;0.10;0.10;;;;;;;;;;5132459;27;20050;-87
2021/12/28 08:38:29;;;;;;;0.08;0.08;;;;;;;;;;5132256;27;20129;-85
2021/12/28 08:40:57;;;;;;;0.10;0.10;;;;;;;;;;5115166;27;20477;-85
2021/12/28 08:43:23;;;;;;;0.10;0.10;;;;;;;;;;5130500;27;20134;-84
2021/12/28 08:45:49;;;;;;;0.10;0.10;;;;;;;;;;5114857;27;20076;-84
2021/12/28 08:48:15;;;;;;;0.10;0.10;;;;;;;;;;5131897;27;20084;-85
2021/12/28 08:50:41;;;;;;;0.10;0.10;;;;;;;;;;5098021;27;20039;-85
2021/12/28 08:53:07;;;;;;;0.10;0.10;;;;;;;;;;5115031;27;20373;-85
2021/12/28 08:55:33;;;;;;;0.10;0.10;;;;;;;;;;5133435;27;20043;-85
2021/12/28 08:57:59;;;;;;;0.10;0.10;;;;;;;;;;5131814;27;20070;-84
2021/12/28 09:00:26;;;;;;;0.10;0.10;;;;;;;;;;5131943;27;20117;-84
2021/12/28 09:02:53;;;;;;;0.10;0.10;;;;;;;;;;5114829;27;20055;-85
2021/12/28 09:05:19;;;;;;;0.10;0.10;;;;;;;;;;5131472;27;20035;-84
2021/12/28 09:07:45;;;;;;;0.10;0.10;;;;;;;;;;5114660;27;20039;-84
2021/12/28 09:10:11;;;;;;;0.10;0.10;;;;;;;;;;5114608;27;20122;-84
2021/12/28 09:12:37;;;;;;;0.10;0.10;;;;;;;;;;5114365;27;20117;-84
2021/12/28 09:15:04;;;;;;;0.10;0.10;;;;;;;;;;5097576;28;20391;-85
2021/12/28 09:17:30;;;;;;;0.10;0.10;;;;;;;;;;5097461;27;20039;-87
2021/12/28 09:19:56;;;;;;;0.10;0.10;;;;;;;;;;5097778;28;20150;-87
2021/12/28 09:22:22;;;;;;;0.10;0.10;;;;;;;;;;5114095;27;20050;-86
2021/12/28 09:24:48;;;;;;;0.10;0.10;;;;;;;;;;5131197;27;20035;-85
2021/12/28 09:27:14;;;;;;;0.10;0.10;;;;;;;;;;5114174;28;20513;-86
2021/12/28 09:29:43;;;;;;;0.10;0.10;;;;;;;;;;5114493;28;20486;-84
2021/12/28 09:32:08;;;;;;;0.10;0.10;;;;;;;;;;5131214;28;20073;-87
2021/12/28 09:34:35;;;;;;;0.10;0.10;;;;;;;;;;5114254;28;20099;-86
2021/12/28 09:37:01;;;;;;;0.10;0.10;;;;;;;;;;5097610;28;20039;-86
2021/12/28 09:39:28;;;;;;;0.10;0.10;;;;;;;;;;5114609;28;20059;-85
2021/12/28 09:41:55;;;;;;;0.10;0.10;;;;;;;;;;5131387;28;20039;-87
2021/12/28 09:44:21;;;;;;;0.10;0.10;;;;;;;;;;5131626;28;20312;-88
2021/12/28 09:46:47;;;;;;;0.10;0.10;;;;;;;;;;5114096;28;20043;-86
2021/12/28 09:49:13;;;;;;;0.10;0.10;;;;;;;;;;5114500;28;20555;-86
2021/12/28 09:51:39;;;;;;;0.10;0.10;;;;;;;;;;5097185;28;20053;-86
2021/12/28 09:54:05;;;;;;;0.10;0.10;;;;;;;;;;5114178;28;20036;-86
2021/12/28 09:56:31;;;;;;;0.43;0.43;;;;;;;;;;5114556;28;20043;-86
2021/12/28 09:58:58;;;;;;;0.10;0.10;;;;;;;;;;5114428;28;20035;-86
2021/12/28 10:01:24;;;;;;;0.10;0.10;;;;;;;;;;5096914;28;20039;-86
2021/12/28 10:03:50;;;;;;;0.20;0.20;;;;;;;;;;5114197;28;20042;-86
2021/12/28 10:06:17;;;;;;;0.10;0.10;;;;;;;;;;5131211;28;20050;-87
2021/12/28 10:08:43;;;;;;;2.40;0.85;;;;;;;;;;5114596;28;20039;-86
2021/12/28 10:11:09;;;;;;;0.10;0.10;;;;;;;;;;5131209;28;20354;-88
2021/12/28 10:13:35;;;;;;;0.10;0.10;;;;;;;;;;5097087;28;20035;-85
2021/12/28 10:16:01;;;;;;;0.10;0.10;;;;;;;;;;5114236;28;20107;-85
2021/12/28 10:18:27;;;;;;;0.10;0.10;;;;;;;;;;5131396;28;20042;-86
2021/12/28 10:20:54;;;;;;;0.10;0.10;;;;;;;;;;5114012;28;20051;-87
2021/12/28 10:23:25;;;;;;;0.10;0.10;;;;;;;;;;5113943;28;20053;-85
2021/12/28 10:25:55;;;;;;;0.10;0.10;;;;;;;;;;5113773;28;20410;-84
2021/12/28 10:28:22;;;;;;;0.10;0.10;;;;;;;;;;5113939;28;20408;-84
2021/12/28 10:30:52;;;;;;;0.10;0.10;;;;;;;;;;5113922;28;20047;-85
2021/12/28 10:33:19;;;;;;;0.10;0.10;;;;;;;;;;5097482;27;20065;-85
2021/12/28 10:35:46;;;;;;;0.20;0.20;;;;;;;;;;5117698;27;20035;-84
2021/12/28 10:38:14;;;;;;;0.10;0.10;;;;;;;;;;5134723;27;20031;-84
2021/12/28 10:40:47;;;;;;;0.10;0.10;;;;;;;;;;5117430;27;20035;-84
2021/12/28 10:43:17;;;;;;;0.10;0.10;;;;;;;;;;5117260;27;20039;-84
2021/12/28 10:45:44;;;;;;;0.63;0.20;;;;;;;;;;5134699;27;20491;-84
2021/12/28 10:48:10;;;;;;;0.10;0.10;;;;;;;;;;5134336;27;20035;-84
2021/12/28 10:50:38;;;;;;;0.10;0.10;;;;;;;;;;5117172;27;20126;-84
2021/12/28 10:53:26;;;;;;;0.10;0.10;;;;;;;;;;5100321;27;20096;-84
2021/12/28 10:55:53;;;;;;;0.10;0.10;;;;;;;;;;5117265;27;20047;-84
2021/12/28 10:58:20;;;;;;;0.10;0.10;;;;;;;;;;5134011;27;20040;-85
2021/12/28 11:00:46;;;;;;;0.20;0.20;;;;;;;;;;5100355;27;20043;-85
2021/12/28 11:03:15;;;;;;;0.10;0.10;;;;;;;;;;5116904;27;20043;-85
2021/12/28 11:05:41;;;;;;;0.10;0.10;;;;;;;;;;5116973;27;20039;-84
2021/12/28 11:08:07;;;;;;;0.10;0.10;;;;;;;;;;5134425;27;20039;-84
2021/12/28 11:10:33;;;;;;;0.10;0.10;;;;;;;;;;5117143;27;20043;-85
2021/12/28 11:12:59;;;;;;;0.10;0.10;;;;;;;;;;5133775;27;20107;-83
2021/12/28 11:15:25;;;;;;;0.20;0.20;;;;;;;;;;5133783;27;20043;-84
2021/12/28 11:17:52;;;;;;;1.23;1.23;;;;;;;;;;5132000;27;20043;-85
2021/12/28 11:20:28;;;;;;;0.10;0.10;;;;;;;;;;5116829;27;20043;-84
2021/12/28 11:23:11;;;;;;;0.10;0.10;;;;;;;;;;5116906;27;20043;-86
2021/12/28 11:25:37;;;;;;;0.20;0.20;;;;;;;;;;5133284;27;20489;-85
2021/12/28 11:28:20;;;;;;;0.10;0.10;;;;;;;;;;5118120;27;20051;-84
2021/12/28 11:30:59;;;;;;;0.10;0.10;;;;;;;;;;5116674;27;20053;-84
2021/12/28 11:33:24;;;;;;;0.10;0.10;;;;;;;;;;5133448;27;20039;-83
2021/12/28 11:35:50;;;;;;;0.10;0.10;;;;;;;;;;5117128;27;20030;-83
2021/12/28 11:38:16;;;;;;;0.17;0.17;;;;;;;;;;5116621;27;20042;-83
2021/12/28 11:40:42;;;;;;;0.10;0.10;;;;;;;;;;5116461;27;20038;-84
2021/12/28 11:43:08;;;;;;;0.10;0.10;;;;;;;;;;5118017;27;20043;-84
2021/12/28 11:45:34;;;;;;;0.10;0.10;;;;;;;;;;5128684;27;20038;-85
2021/12/28 11:48:00;;;;;;;0.10;0.10;;;;;;;;;;5122568;27;20035;-86
2021/12/28 11:50:26;;;;;;;0.10;0.10;;;;;;;;;;5119623;27;20038;-85
2021/12/28 11:52:52;;;;;;;0.10;0.10;;;;;;;;;;5116092;27;20526;-85
2021/12/28 11:55:19;;;;;;;0.10;0.10;;;;;;;;;;5115805;27;20053;-85
2021/12/28 11:57:52;;;;;;;0.30;0.30;;;;;;;;;;5132859;27;20046;-85
2021/12/28 12:00:19;;;;;;;0.20;0.20;;;;;;;;;;5132936;27;20034;-86
2021/12/28 12:02:51;;;;;;;0.10;0.10;;;;;;;;;;5098984;27;20050;-88
2021/12/28 12:05:26;;;;;;;0.10;0.10;;;;;;;;;;5116088;27;20386;-88
2021/12/28 12:08:13;;;;;;;0.10;0.10;;;;;;;;;;5098965;27;20481;-85
2021/12/28 12:10:39;;;;;;;0.10;0.10;;;;;;;;;;5115161;27;20047;-86
2021/12/28 12:13:06;;;;;;;0.10;0.10;;;;;;;;;;5098388;27;20039;-85
2021/12/28 12:15:43;;;;;;;0.10;0.10;;;;;;;;;;5132822;27;20042;-85
2021/12/28 12:18:10;;;;;;;0.10;0.10;;;;;;;;;;5099027;27;20126;-85
2021/12/28 12:20:37;;;;;;;0.10;0.10;;;;;;;;;;5115547;27;20095;-85
2021/12/28 12:23:08;;;;;;;0.30;0.30;;;;;;;;;;5115730;27;20440;-85
2021/12/28 12:25:56;;;;;;;0.10;0.10;;;;;;;;;;5115042;27;20127;-85
2021/12/28 12:28:42;;;;;;;0.10;0.10;;;;;;;;;;5115439;27;20043;-85
2021/12/28 12:31:12;;;;;;;0.17;0.17;;;;;;;;;;5115524;27;20035;-85
2021/12/28 12:33:39;;;;;;;0.10;0.10;;;;;;;;;;5115147;27;20134;-85
2021/12/28 12:36:08;;;;;;;0.15;0.15;;;;;;;;;;5132449;27;20070;-86
2021/12/28 12:38:35;;;;;;;0.10;0.10;;;;;;;;;;5098757;27;20389;-85
2021/12/28 12:41:03;;;;;;;0.10;0.10;;;;;;;;;;5132071;27;20490;-85
2021/12/28 12:43:35;;;;;;;0.10;0.10;;;;;;;;;;5115014;27;20039;-86
2021/12/28 12:46:18;;;;;;;0.10;0.10;;;;;;;;;;5131780;27;20247;-85
2021/12/28 12:48:44;;;;;;;;;;;;;;;;;;5115641;27;20498;-85
2021/12/28 12:51:19;;;;;;;0.10;0.10;;;;;;;;;;5131959;27;19922;-85
2021/12/28 12:53:46;;;;;;;0.68;0.68;;;;;;;;;;5132339;27;20285;-85
2021/12/28 12:56:16;;;;;;;0.10;0.10;;;;;;;;;;5097788;27;20359;-85
2021/12/28 12:58:44;;;;;;;0.28;0.28;;;;;;;;;;5114636;27;20047;-86
2021/12/28 13:01:32;;;;;;;0.10;0.10;;;;;;;;;;5097984;27;20530;-85
2021/12/28 13:03:59;;;;;;;0.10;0.10;;;;;;;;;;5084591;27;20129;-85
2021/12/28 13:06:45;;;;;;;0.10;0.10;;;;;;;;;;5132041;27;20103;-86
2021/12/28 13:09:14;;;;;;;0.13;0.13;;;;;;;;;;5131697;27;20439;-86
2021/12/28 13:11:41;;;;;;;0.15;0.15;;;;;;;;;;5114409;27;20066;-86
2021/12/28 13:14:07;;;;;;;0.10;0.10;;;;;;;;;;5097567;27;20039;-86
2021/12/28 13:16:33;;;;;;;0.10;0.10;;;;;;;;;;5114543;27;20054;-86
2021/12/28 13:19:12;;;;;;;0.10;0.10;;;;;;;;;;5114126;27;20121;-87
2021/12/28 13:21:38;;;;;;;0.10;0.10;;;;;;;;;;5131372;27;20118;-87
2021/12/28 13:24:07;;;;;;;0.10;0.10;;;;;;;;;;5097369;28;20187;-86
2021/12/28 13:26:42;;;;;;;0.10;0.10;;;;;;;;;;5130697;27;20051;-86
2021/12/28 13:29:11;;;;;;;0.10;0.10;;;;;;;;;;5131096;28;20117;-86
2021/12/28 13:31:37;;;;;;;0.32;0.32;;;;;;;;;;5097425;28;20039;-86
2021/12/28 13:34:03;;;;;;;0.32;0.32;;;;;;;;;;5097203;28;20039;-86
2021/12/28 13:36:29;;;;;;;0.10;0.10;;;;;;;;;;5114349;28;20042;-85
2021/12/28 13:39:08;;;;;;;0.10;0.10;;;;;;;;;;5131238;28;20347;-86
2021/12/28 13:41:34;;;;;;;0.10;0.10;;;;;;;;;;5131328;28;20069;-89
2021/12/28 13:44:04;;;;;;;0.10;0.10;;;;;;;;;;5114077;28;20046;-88
2021/12/28 13:46:30;;;;;;;0.10;0.10;;;;;;;;;;5114449;28;20047;-88
2021/12/28 13:48:55;;;;;;;0.10;0.10;;;;;;;;;;5097252;28;20084;-87
2021/12/28 13:51:22;;;;;;;0.10;0.10;;;;;;;;;;5096881;28;20035;-88
2021/12/28 13:53:56;;;;;;;0.10;0.10;;;;;;;;;;5113967;28;20389;-87
2021/12/28 13:56:30;;;;;;;0.10;0.10;;;;;;;;;;5113818;28;20058;-87
2021/12/28 13:58:56;;;;;;;0.10;0.10;;;;;;;;;;5115071;28;20354;-86
2021/12/28 14:01:23;;;;;;;0.20;0.20;;;;;;;;;;5096905;28;20126;-87
2021/12/28 14:03:57;;;;;;;0.10;0.10;;;;;;;;;;5130881;28;20041;-87
2021/12/28 14:06:26;;;;;;;0.25;0.25;;;;;;;;;;5113754;28;20043;-86
2021/12/28 14:08:52;;;;;;;0.10;0.10;;;;;;;;;;5098926;27;20441;-86
2021/12/28 14:11:31;;;;;;;0.10;0.10;;;;;;;;;;5117821;27;20039;-86
2021/12/28 14:13:57;;;;;;;0.10;0.10;;;;;;;;;;5117763;27;20075;-87
2021/12/28 14:16:23;;;;;;;0.10;0.10;;;;;;;;;;5117845;27;20074;-87
2021/12/28 14:18:50;;;;;;;0.10;0.10;;;;;;;;;;5100690;27;20082;-87
2021/12/28 14:21:25;;;;;;;0.10;0.10;;;;;;;;;;5100920;27;20052;-87
2021/12/28 14:24:04;;;;;;;0.10;0.10;;;;;;;;;;5117607;27;20043;-87
2021/12/28 14:26:32;;;;;;;0.10;0.10;;;;;;;;;;5134432;27;20055;-87
2021/12/28 14:29:05;;;;;;;0.10;0.10;;;;;;;;;;5134666;27;20075;-86
2021/12/28 14:31:57;;;;;;;0.10;0.10;;;;;;;;;;5100371;27;20041;-87
2021/12/28 14:34:42;;;;;;;0.10;0.10;;;;;;;;;;5094183;27;20085;-88
2021/12/28 14:37:18;;;;;;;0.10;0.10;;;;;;;;;;5117432;27;20085;-89
2021/12/28 14:39:44;;;;;;;0.20;0.20;;;;;;;;;;5117097;27;20043;-89
2021/12/28 14:42:11;;;;;;;0.10;0.10;;;;;;;;;;5117234;27;20032;-89
2021/12/28 14:44:38;;;;;;;0.10;0.10;;;;;;;;;;5135012;27;20135;-89
2021/12/28 14:47:13;;;;;;;0.10;0.10;;;;;;;;;;5117300;27;20039;-89